sensor_id;sensor_type;location;lat;lon;timestamp;pressure;altitude;pressure_sealevel;temperature;humidity
64292;BME280;50628;51.008;13.658;2023-05-19T00:01:57;100630.59;;;11.43;100.00
64292;BME280;50628;51.008;13.658;2023-05-19T00:06:59;100625.38;;;11.43;100.00
64292;BME280;50628;51.008;13.658;2023-05-19T00:12:01;100621.31;;;11.39;100.00
64292;BME280;50628;51.008;13.658;2023-05-19T00:17:06;100622.50;;;11.22;100.00
64292;BME280;50628;51.008;13.658;2023-05-19T00:22:08;100618.75;;;11.00;100.00
64292;BME280;50628;51.008;13.658;2023-05-19T00:27:10;100614.38;;;11.01;100.00
64292;BME280;50628;51.008;13.658;2023-05-19T00:32:14;100610.63;;;11.05;100.00
64292;BME280;50628;51.008;13.658;2023-05-19T00:37:16;100611.06;;;10.99;100.00
64292;BME280;50628;51.008;13.658;2023-05-19T00:42:18;100610.31;;;10.71;100.00
64292;BME280;50628;51.008;13.658;2023-05-19T00:47:22;100610.94;;;10.62;100.00
64292;BME280;50628;51.008;13.658;2023-05-19T00:52:24;100615.31;;;10.61;100.00
64292;BME280;50628;51.008;13.658;2023-05-19T00:57:27;100613.22;;;10.54;100.00
64292;BME280;50628;51.008;13.658;2023-05-19T01:02:30;100610.69;;;10.39;100.00
64292;BME280;50628;51.008;13.658;2023-05-19T01:07:32;100613.59;;;10.35;100.00
64292;BME280;50628;51.008;13.658;2023-05-19T01:12:35;100610.06;;;10.36;100.00
64292;BME280;50628;51.008;13.658;2023-05-19T01:17:43;100610.84;;;10.24;100.00
64292;BME280;50628;51.008;13.658;2023-05-19T01:23:08;100605.22;;;10.03;100.00
64292;BME280;50628;51.008;13.658;2023-05-19T01:33:42;100611.47;;;9.73;100.00
64292;BME280;50628;51.008;13.658;2023-05-19T01:38:45;100607.53;;;9.53;100.00
64292;BME280;50628;51.008;13.658;2023-05-19T01:43:49;100614.59;;;9.37;100.00
64292;BME280;50628;51.008;13.658;2023-05-19T01:48:53;100617.09;;;9.52;100.00
64292;BME280;50628;51.008;13.658;2023-05-19T01:53:55;100615.69;;;9.47;100.00
64292;BME280;50628;51.008;13.658;2023-05-19T01:59:01;100620.94;;;9.32;100.00
64292;BME280;50628;51.008;13.658;2023-05-19T02:04:15;100609.88;;;9.15;100.00
64292;BME280;50628;51.008;13.658;2023-05-19T02:09:25;100606.72;;;8.95;100.00
64292;BME280;50628;51.008;13.658;2023-05-19T02:14:34;100617.22;;;9.22;100.00
64292;BME280;50628;51.008;13.658;2023-05-19T02:19:41;100606.53;;;9.27;100.00
64292;BME280;50628;51.008;13.658;2023-05-19T02:24:44;100605.16;;;9.21;100.00
64292;BME280;50628;51.008;13.658;2023-05-19T02:29:47;100614.06;;;9.03;100.00
64292;BME280;50628;51.008;13.658;2023-05-19T02:34:50;100612.56;;;8.84;100.00
64292;BME280;50628;51.008;13.658;2023-05-19T02:39:52;100612.16;;;8.76;100.00
64292;BME280;50628;51.008;13.658;2023-05-19T02:44:54;100608.66;;;8.77;100.00
64292;BME280;50628;51.008;13.658;2023-05-19T02:49:58;100603.38;;;8.79;100.00
64292;BME280;50628;51.008;13.658;2023-05-19T02:54:59;100601.44;;;8.82;100.00
64292;BME280;50628;51.008;13.658;2023-05-19T03:00:01;100590.69;;;8.88;100.00
64292;BME280;50628;51.008;13.658;2023-05-19T03:05:08;100585.56;;;8.73;100.00
64292;BME280;50628;51.008;13.658;2023-05-19T03:10:10;100587.25;;;8.88;100.00
64292;BME280;50628;51.008;13.658;2023-05-19T03:15:11;100587.50;;;8.69;100.00
64292;BME280;50628;51.008;13.658;2023-05-19T03:20:16;100591.75;;;8.56;100.00
64292;BME280;50628;51.008;13.658;2023-05-19T03:25:18;100597.50;;;8.31;100.00
64292;BME280;50628;51.008;13.658;2023-05-19T03:30:20;100586.53;;;8.41;100.00
64292;BME280;50628;51.008;13.658;2023-05-19T03:35:49;100589.41;;;8.51;100.00
64292;BME280;50628;51.008;13.658;2023-05-19T03:40:53;100606.09;;;8.47;100.00
64292;BME280;50628;51.008;13.658;2023-05-19T03:45:55;100598.78;;;8.54;100.00
64292;BME280;50628;51.008;13.658;2023-05-19T03:51:25;100602.13;;;8.56;100.00
64292;BME280;50628;51.008;13.658;2023-05-19T03:56:31;100593.44;;;8.57;100.00
64292;BME280;50628;51.008;13.658;2023-05-19T04:01:33;100604.19;;;8.65;100.00
64292;BME280;50628;51.008;13.658;2023-05-19T04:06:37;100603.19;;;8.68;100.00
64292;BME280;50628;51.008;13.658;2023-05-19T04:11:39;100609.19;;;8.68;100.00
64292;BME280;50628;51.008;13.658;2023-05-19T04:16:41;100600.97;;;8.76;100.00
64292;BME280;50628;51.008;13.658;2023-05-19T04:21:44;100610.88;;;8.83;100.00
64292;BME280;50628;51.008;13.658;2023-05-19T04:26:46;100595.97;;;9.01;100.00
64292;BME280;50628;51.008;13.658;2023-05-19T04:31:51;100604.13;;;9.09;100.00
64292;BME280;50628;51.008;13.658;2023-05-19T04:36:55;100597.47;;;9.05;100.00
64292;BME280;50628;51.008;13.658;2023-05-19T04:41:57;100593.94;;;9.21;100.00
64292;BME280;50628;51.008;13.658;2023-05-19T04:46:59;100602.47;;;9.23;100.00
64292;BME280;50628;51.008;13.658;2023-05-19T04:52:04;100590.38;;;9.36;100.00
64292;BME280;50628;51.008;13.658;2023-05-19T04:57:07;100592.78;;;9.39;100.00
64292;BME280;50628;51.008;13.658;2023-05-19T05:02:12;100590.53;;;9.47;100.00
64292;BME280;50628;51.008;13.658;2023-05-19T05:07:15;100602.94;;;9.71;100.00
64292;BME280;50628;51.008;13.658;2023-05-19T05:12:18;100605.78;;;9.81;100.00
64292;BME280;50628;51.008;13.658;2023-05-19T05:17:22;100604.28;;;9.91;100.00
64292;BME280;50628;51.008;13.658;2023-05-19T05:22:26;100598.81;;;10.08;100.00
64292;BME280;50628;51.008;13.658;2023-05-19T05:27:29;100592.69;;;10.09;100.00
64292;BME280;50628;51.008;13.658;2023-05-19T05:32:32;100593.41;;;10.11;100.00
64292;BME280;50628;51.008;13.658;2023-05-19T05:37:38;100596.72;;;10.40;100.00
64292;BME280;50628;51.008;13.658;2023-05-19T05:42:40;100605.63;;;10.51;100.00
64292;BME280;50628;51.008;13.658;2023-05-19T05:47:43;100591.13;;;10.59;100.00
64292;BME280;50628;51.008;13.658;2023-05-19T05:52:49;100596.66;;;10.68;100.00
64292;BME280;50628;51.008;13.658;2023-05-19T05:57:52;100602.09;;;10.90;100.00
64292;BME280;50628;51.008;13.658;2023-05-19T06:02:56;100602.38;;;11.11;100.00
64292;BME280;50628;51.008;13.658;2023-05-19T06:08:01;100600.91;;;11.20;100.00
64292;BME280;50628;51.008;13.658;2023-05-19T06:13:03;100607.59;;;11.24;100.00
64292;BME280;50628;51.008;13.658;2023-05-19T06:18:06;100598.53;;;11.54;100.00
64292;BME280;50628;51.008;13.658;2023-05-19T06:23:09;100602.47;;;11.72;100.00
64292;BME280;50628;51.008;13.658;2023-05-19T06:28:11;100588.78;;;12.05;100.00
64292;BME280;50628;51.008;13.658;2023-05-19T06:33:13;100588.81;;;12.17;100.00
64292;BME280;50628;51.008;13.658;2023-05-19T06:38:16;100586.09;;;12.18;100.00
64292;BME280;50628;51.008;13.658;2023-05-19T06:43:18;100588.28;;;12.00;100.00
64292;BME280;50628;51.008;13.658;2023-05-19T06:48:29;100573.84;;;12.07;100.00
64292;BME280;50628;51.008;13.658;2023-05-19T06:53:34;100582.97;;;12.48;100.00
64292;BME280;50628;51.008;13.658;2023-05-19T06:58:40;100585.16;;;12.77;100.00
64292;BME280;50628;51.008;13.658;2023-05-19T07:03:44;100582.25;;;12.46;100.00
64292;BME280;50628;51.008;13.658;2023-05-19T07:08:49;100571.13;;;12.67;100.00
64292;BME280;50628;51.008;13.658;2023-05-19T07:13:51;100574.38;;;12.70;100.00
64292;BME280;50628;51.008;13.658;2023-05-19T07:18:59;100570.69;;;12.73;100.00
64292;BME280;50628;51.008;13.658;2023-05-19T07:24:03;100570.31;;;13.11;100.00
64292;BME280;50628;51.008;13.658;2023-05-19T07:29:05;100565.09;;;13.00;100.00
64292;BME280;50628;51.008;13.658;2023-05-19T07:34:07;100566.16;;;13.09;100.00
64292;BME280;50628;51.008;13.658;2023-05-19T07:39:10;100556.81;;;13.29;100.00
64292;BME280;50628;51.008;13.658;2023-05-19T07:44:12;100563.81;;;12.83;100.00
64292;BME280;50628;51.008;13.658;2023-05-19T07:49:14;100556.66;;;13.41;100.00
64292;BME280;50628;51.008;13.658;2023-05-19T07:54:18;100551.94;;;13.68;100.00
64292;BME280;50628;51.008;13.658;2023-05-19T07:59:22;100549.78;;;14.26;100.00
64292;BME280;50628;51.008;13.658;2023-05-19T08:04:24;100553.75;;;14.20;100.00
64292;BME280;50628;51.008;13.658;2023-05-19T08:09:28;100540.34;;;14.35;100.00
64292;BME280;50628;51.008;13.658;2023-05-19T08:14:30;100547.88;;;14.70;99.43
64292;BME280;50628;51.008;13.658;2023-05-19T08:19:33;100554.25;;;15.08;92.32
64292;BME280;50628;51.008;13.658;2023-05-19T08:24:36;100547.75;;;15.02;90.01
64292;BME280;50628;51.008;13.658;2023-05-19T08:29:38;100546.25;;;15.19;86.39
64292;BME280;50628;51.008;13.658;2023-05-19T08:34:40;100534.94;;;14.78;88.16
64292;BME280;50628;51.008;13.658;2023-05-19T08:39:43;100533.16;;;14.79;88.78
64292;BME280;50628;51.008;13.658;2023-05-19T08:44:45;100523.88;;;14.65;88.42
64292;BME280;50628;51.008;13.658;2023-05-19T08:49:52;100513.69;;;15.22;80.69
64292;BME280;50628;51.008;13.658;2023-05-19T08:55:03;100520.81;;;15.50;75.45
64292;BME280;50628;51.008;13.658;2023-05-19T09:00:06;100524.97;;;15.82;73.28
64292;BME280;50628;51.008;13.658;2023-05-19T09:05:11;100517.38;;;16.18;73.51
64292;BME280;50628;51.008;13.658;2023-05-19T09:10:14;100503.16;;;15.91;76.04
64292;BME280;50628;51.008;13.658;2023-05-19T09:15:16;100497.16;;;16.38;78.16
64292;BME280;50628;51.008;13.658;2023-05-19T09:20:19;100499.28;;;16.05;79.27
64292;BME280;50628;51.008;13.658;2023-05-19T09:25:23;100497.13;;;15.11;83.70
64292;BME280;50628;51.008;13.658;2023-05-19T09:30:25;100502.47;;;15.79;82.98
64292;BME280;50628;51.008;13.658;2023-05-19T09:35:27;100501.06;;;15.56;83.25
64292;BME280;50628;51.008;13.658;2023-05-19T09:40:30;100495.66;;;15.67;82.27
64292;BME280;50628;51.008;13.658;2023-05-19T09:45:33;100500.91;;;15.48;78.88
64292;BME280;50628;51.008;13.658;2023-05-19T09:50:36;100490.84;;;15.92;78.03
64292;BME280;50628;51.008;13.658;2023-05-19T09:55:39;100478.13;;;15.97;73.73
64292;BME280;50628;51.008;13.658;2023-05-19T10:00:42;100478.41;;;15.94;75.80
64292;BME280;50628;51.008;13.658;2023-05-19T10:05:45;100467.06;;;16.87;72.67
64292;BME280;50628;51.008;13.658;2023-05-19T10:10:49;100470.25;;;15.97;72.29
64292;BME280;50628;51.008;13.658;2023-05-19T10:15:52;100474.16;;;15.83;73.36
64292;BME280;50628;51.008;13.658;2023-05-19T10:20:55;100482.03;;;15.73;72.96
64292;BME280;50628;51.008;13.658;2023-05-19T10:26:01;100470.31;;;16.34;72.36
64292;BME280;50628;51.008;13.658;2023-05-19T10:31:08;100463.69;;;16.30;72.33
64292;BME280;50628;51.008;13.658;2023-05-19T10:36:24;100472.38;;;16.68;70.64
64292;BME280;50628;51.008;13.658;2023-05-19T10:41:40;100458.88;;;16.91;71.27
64292;BME280;50628;51.008;13.658;2023-05-19T10:46:46;100447.50;;;17.36;70.24
64292;BME280;50628;51.008;13.658;2023-05-19T10:51:48;100452.47;;;16.38;72.67
64292;BME280;50628;51.008;13.658;2023-05-19T10:56:55;100457.50;;;17.68;70.43
64292;BME280;50628;51.008;13.658;2023-05-19T11:02:02;100459.94;;;16.98;71.67
64292;BME280;50628;51.008;13.658;2023-05-19T11:07:04;100459.03;;;17.17;71.40
64292;BME280;50628;51.008;13.658;2023-05-19T11:12:08;100451.78;;;16.36;75.00
64292;BME280;50628;51.008;13.658;2023-05-19T11:17:13;100440.94;;;17.76;71.23
64292;BME280;50628;51.008;13.658;2023-05-19T11:22:15;100435.41;;;17.25;72.43
64292;BME280;50628;51.008;13.658;2023-05-19T11:27:24;100440.41;;;16.82;73.63
64292;BME280;50628;51.008;13.658;2023-05-19T11:32:27;100450.75;;;17.65;71.60
64292;BME280;50628;51.008;13.658;2023-05-19T11:37:31;100445.94;;;18.31;69.51
64292;BME280;50628;51.008;13.658;2023-05-19T11:42:35;100437.25;;;17.86;69.47
64292;BME280;50628;51.008;13.658;2023-05-19T11:47:37;100429.63;;;17.57;69.80
64292;BME280;50628;51.008;13.658;2023-05-19T11:52:43;100443.88;;;18.43;67.75
64292;BME280;50628;51.008;13.658;2023-05-19T11:58:00;100438.91;;;18.40;68.65
64292;BME280;50628;51.008;13.658;2023-05-19T12:03:02;100431.16;;;18.72;66.10
64292;BME280;50628;51.008;13.658;2023-05-19T12:08:05;100442.34;;;19.50;64.04
64292;BME280;50628;51.008;13.658;2023-05-19T12:13:08;100444.44;;;17.58;67.95
64292;BME280;50628;51.008;13.658;2023-05-19T12:18:10;100438.53;;;19.19;65.68
64292;BME280;50628;51.008;13.658;2023-05-19T12:23:12;100433.31;;;17.82;68.19
64292;BME280;50628;51.008;13.658;2023-05-19T12:28:18;100421.72;;;19.20;65.51
64292;BME280;50628;51.008;13.658;2023-05-19T12:33:20;100422.56;;;19.54;64.29
64292;BME280;50628;51.008;13.658;2023-05-19T12:38:23;100437.28;;;18.47;66.25
64292;BME280;50628;51.008;13.658;2023-05-19T12:43:27;100431.59;;;17.19;71.05
64292;BME280;50628;51.008;13.658;2023-05-19T12:48:29;100425.50;;;17.37;71.93
64292;BME280;50628;51.008;13.658;2023-05-19T12:53:31;100425.63;;;16.99;76.09
64292;BME280;50628;51.008;13.658;2023-05-19T12:58:35;100420.38;;;17.53;74.19
64292;BME280;50628;51.008;13.658;2023-05-19T13:03:39;100413.19;;;19.76;66.30
64292;BME280;50628;51.008;13.658;2023-05-19T13:08:42;100402.91;;;19.89;63.94
64292;BME280;50628;51.008;13.658;2023-05-19T13:13:45;100416.44;;;19.37;65.76
64292;BME280;50628;51.008;13.658;2023-05-19T13:18:47;100417.88;;;18.90;65.73
64292;BME280;50628;51.008;13.658;2023-05-19T13:23:49;100413.38;;;18.06;72.82
64292;BME280;50628;51.008;13.658;2023-05-19T13:28:52;100410.53;;;18.68;71.10
64292;BME280;50628;51.008;13.658;2023-05-19T13:33:54;100424.88;;;18.05;72.85
64292;BME280;50628;51.008;13.658;2023-05-19T13:38:56;100426.28;;;17.91;75.16
64292;BME280;50628;51.008;13.658;2023-05-19T13:43:59;100416.28;;;17.59;74.73
64292;BME280;50628;51.008;13.658;2023-05-19T13:49:01;100415.03;;;17.45;75.31
64292;BME280;50628;51.008;13.658;2023-05-19T13:54:03;100417.53;;;17.46;77.20
64292;BME280;50628;51.008;13.658;2023-05-19T13:59:06;100406.03;;;16.94;76.15
64292;BME280;50628;51.008;13.658;2023-05-19T14:04:08;100406.59;;;18.03;74.18
64292;BME280;50628;51.008;13.658;2023-05-19T14:09:11;100415.03;;;17.45;78.20
64292;BME280;50628;51.008;13.658;2023-05-19T14:14:14;100416.63;;;17.02;83.91
64292;BME280;50628;51.008;13.658;2023-05-19T14:19:16;100420.75;;;16.77;85.75
64292;BME280;50628;51.008;13.658;2023-05-19T14:24:18;100413.59;;;16.97;83.80
64292;BME280;50628;51.008;13.658;2023-05-19T14:29:22;100414.44;;;17.15;83.83
64292;BME280;50628;51.008;13.658;2023-05-19T14:34:23;100416.19;;;17.06;85.79
64292;BME280;50628;51.008;13.658;2023-05-19T14:39:25;100413.88;;;17.65;84.67
64292;BME280;50628;51.008;13.658;2023-05-19T14:44:32;100414.19;;;16.91;90.64
64292;BME280;50628;51.008;13.658;2023-05-19T14:49:33;100411.34;;;16.84;90.74
64292;BME280;50628;51.008;13.658;2023-05-19T14:54:35;100414.16;;;16.35;96.09
64292;BME280;50628;51.008;13.658;2023-05-19T14:59:38;100422.44;;;16.68;96.87
64292;BME280;50628;51.008;13.658;2023-05-19T15:04:40;100423.31;;;17.32;92.71
64292;BME280;50628;51.008;13.658;2023-05-19T15:09:42;100414.78;;;17.56;86.47
64292;BME280;50628;51.008;13.658;2023-05-19T15:14:46;100415.78;;;17.55;85.91
64292;BME280;50628;51.008;13.658;2023-05-19T15:19:47;100418.34;;;17.47;89.06
64292;BME280;50628;51.008;13.658;2023-05-19T15:24:49;100419.44;;;16.63;96.82
64292;BME280;50628;51.008;13.658;2023-05-19T15:29:52;100421.56;;;16.77;97.81
64292;BME280;50628;51.008;13.658;2023-05-19T15:34:54;100422.94;;;17.09;95.75
64292;BME280;50628;51.008;13.658;2023-05-19T15:39:56;100426.69;;;16.51;100.00
64292;BME280;50628;51.008;13.658;2023-05-19T15:44:59;100434.16;;;16.09;100.00
64292;BME280;50628;51.008;13.658;2023-05-19T15:50:01;100439.00;;;16.13;100.00
64292;BME280;50628;51.008;13.658;2023-05-19T15:55:04;100434.44;;;16.15;100.00
64292;BME280;50628;51.008;13.658;2023-05-19T16:00:10;100440.56;;;15.48;100.00
64292;BME280;50628;51.008;13.658;2023-05-19T16:05:12;100442.50;;;15.46;100.00
64292;BME280;50628;51.008;13.658;2023-05-19T16:10:14;100451.19;;;15.56;100.00
64292;BME280;50628;51.008;13.658;2023-05-19T16:15:17;100459.22;;;15.84;100.00
64292;BME280;50628;51.008;13.658;2023-05-19T16:20:19;100454.38;;;15.98;100.00
64292;BME280;50628;51.008;13.658;2023-05-19T16:25:26;100453.28;;;15.52;100.00
64292;BME280;50628;51.008;13.658;2023-05-19T16:30:29;100461.94;;;15.24;100.00
64292;BME280;50628;51.008;13.658;2023-05-19T16:35:31;100449.84;;;15.42;100.00
64292;BME280;50628;51.008;13.658;2023-05-19T16:40:33;100457.84;;;15.60;100.00
64292;BME280;50628;51.008;13.658;2023-05-19T16:45:36;100468.25;;;15.02;100.00
64292;BME280;50628;51.008;13.658;2023-05-19T16:50:38;100467.59;;;15.09;100.00
64292;BME280;50628;51.008;13.658;2023-05-19T16:55:40;100472.44;;;14.74;100.00
64292;BME280;50628;51.008;13.658;2023-05-19T17:00:43;100465.31;;;14.85;100.00
64292;BME280;50628;51.008;13.658;2023-05-19T17:05:45;100455.03;;;14.63;100.00
64292;BME280;50628;51.008;13.658;2023-05-19T17:10:47;100458.00;;;14.79;100.00
64292;BME280;50628;51.008;13.658;2023-05-19T17:15:51;100458.34;;;15.05;100.00
64292;BME280;50628;51.008;13.658;2023-05-19T17:20:53;100471.22;;;14.78;100.00
64292;BME280;50628;51.008;13.658;2023-05-19T17:25:54;100464.78;;;14.91;100.00
64292;BME280;50628;51.008;13.658;2023-05-19T17:30:58;100472.88;;;14.79;100.00
64292;BME280;50628;51.008;13.658;2023-05-19T17:36:01;100465.41;;;14.64;100.00
64292;BME280;50628;51.008;13.658;2023-05-19T17:41:03;100476.44;;;14.68;100.00
64292;BME280;50628;51.008;13.658;2023-05-19T17:46:10;100478.75;;;14.61;100.00
64292;BME280;50628;51.008;13.658;2023-05-19T17:51:12;100482.75;;;14.35;100.00
64292;BME280;50628;51.008;13.658;2023-05-19T17:56:14;100480.38;;;14.11;100.00
64292;BME280;50628;51.008;13.658;2023-05-19T18:01:18;100470.16;;;14.07;100.00
64292;BME280;50628;51.008;13.658;2023-05-19T18:06:24;100465.69;;;14.19;100.00
64292;BME280;50628;51.008;13.658;2023-05-19T18:11:26;100463.06;;;13.98;100.00
64292;BME280;50628;51.008;13.658;2023-05-19T18:16:30;100466.13;;;14.03;100.00
64292;BME280;50628;51.008;13.658;2023-05-19T18:21:32;100470.47;;;13.93;100.00
64292;BME280;50628;51.008;13.658;2023-05-19T18:26:33;100468.91;;;14.02;100.00
64292;BME280;50628;51.008;13.658;2023-05-19T18:31:42;100476.03;;;14.21;100.00
64292;BME280;50628;51.008;13.658;2023-05-19T18:36:44;100477.84;;;13.99;100.00
64292;BME280;50628;51.008;13.658;2023-05-19T18:41:46;100468.09;;;14.01;100.00
64292;BME280;50628;51.008;13.658;2023-05-19T18:46:49;100471.63;;;13.58;100.00
64292;BME280;50628;51.008;13.658;2023-05-19T18:51:51;100474.44;;;13.67;100.00
64292;BME280;50628;51.008;13.658;2023-05-19T18:56:53;100490.06;;;13.78;100.00
64292;BME280;50628;51.008;13.658;2023-05-19T19:01:56;100489.06;;;13.90;100.00
64292;BME280;50628;51.008;13.658;2023-05-19T19:06:58;100475.06;;;13.59;100.00
64292;BME280;50628;51.008;13.658;2023-05-19T19:12:00;100487.94;;;13.51;100.00
64292;BME280;50628;51.008;13.658;2023-05-19T19:17:04;100482.44;;;13.54;100.00
64292;BME280;50628;51.008;13.658;2023-05-19T19:22:06;100490.63;;;13.60;100.00
64292;BME280;50628;51.008;13.658;2023-05-19T19:27:08;100491.84;;;13.56;100.00
64292;BME280;50628;51.008;13.658;2023-05-19T19:32:11;100487.53;;;13.55;100.00
64292;BME280;50628;51.008;13.658;2023-05-19T19:37:13;100492.13;;;13.74;100.00
64292;BME280;50628;51.008;13.658;2023-05-19T19:42:15;100493.31;;;13.70;100.00
64292;BME280;50628;51.008;13.658;2023-05-19T19:47:19;100487.22;;;13.81;100.00
64292;BME280;50628;51.008;13.658;2023-05-19T19:52:21;100488.94;;;13.38;100.00
64292;BME280;50628;51.008;13.658;2023-05-19T19:57:23;100494.78;;;13.31;100.00
64292;BME280;50628;51.008;13.658;2023-05-19T20:02:27;100495.69;;;13.41;100.00
64292;BME280;50628;51.008;13.658;2023-05-19T20:07:29;100493.44;;;13.36;100.00
64292;BME280;50628;51.008;13.658;2023-05-19T20:12:31;100491.75;;;13.47;100.00
64292;BME280;50628;51.008;13.658;2023-05-19T20:17:35;100498.16;;;13.54;100.00
64292;BME280;50628;51.008;13.658;2023-05-19T20:22:37;100494.53;;;13.34;100.00
64292;BME280;50628;51.008;13.658;2023-05-19T20:27:39;100494.47;;;13.45;100.00
64292;BME280;50628;51.008;13.658;2023-05-19T20:32:42;100494.09;;;13.61;100.00
64292;BME280;50628;51.008;13.658;2023-05-19T20:37:45;100501.03;;;13.39;100.00
64292;BME280;50628;51.008;13.658;2023-05-19T20:42:48;100500.31;;;13.37;100.00
64292;BME280;50628;51.008;13.658;2023-05-19T20:47:52;100499.34;;;13.50;100.00
64292;BME280;50628;51.008;13.658;2023-05-19T20:52:54;100501.53;;;13.33;100.00
64292;BME280;50628;51.008;13.658;2023-05-19T20:57:56;100501.16;;;13.38;100.00
64292;BME280;50628;51.008;13.658;2023-05-19T21:02:59;100485.34;;;13.39;100.00
64292;BME280;50628;51.008;13.658;2023-05-19T21:08:01;100496.19;;;13.24;100.00
64292;BME280;50628;51.008;13.658;2023-05-19T21:13:03;100486.78;;;13.32;100.00
64292;BME280;50628;51.008;13.658;2023-05-19T21:18:06;100496.53;;;13.30;100.00
64292;BME280;50628;51.008;13.658;2023-05-19T21:23:10;100496.53;;;13.30;100.00
64292;BME280;50628;51.008;13.658;2023-05-19T21:28:12;100502.72;;;13.29;100.00
64292;BME280;50628;51.008;13.658;2023-05-19T21:33:15;100504.38;;;13.30;100.00
64292;BME280;50628;51.008;13.658;2023-05-19T21:38:17;100504.50;;;13.29;100.00
64292;BME280;50628;51.008;13.658;2023-05-19T21:43:19;100506.03;;;13.20;100.00
64292;BME280;50628;51.008;13.658;2023-05-19T21:48:23;100504.28;;;13.20;100.00
64292;BME280;50628;51.008;13.658;2023-05-19T21:53:25;100503.09;;;13.13;100.00
64292;BME280;50628;51.008;13.658;2023-05-19T21:58:27;100497.88;;;13.02;100.00
64292;BME280;50628;51.008;13.658;2023-05-19T22:03:30;100493.34;;;13.27;100.00
64292;BME280;50628;51.008;13.658;2023-05-19T22:08:32;100489.41;;;13.10;100.00
64292;BME280;50628;51.008;13.658;2023-05-19T22:13:34;100493.97;;;12.74;100.00
64292;BME280;50628;51.008;13.658;2023-05-19T22:18:38;100488.28;;;12.80;100.00
64292;BME280;50628;51.008;13.658;2023-05-19T22:23:40;100495.13;;;13.04;100.00
64292;BME280;50628;51.008;13.658;2023-05-19T22:28:41;100492.78;;;13.01;100.00
64292;BME280;50628;51.008;13.658;2023-05-19T22:33:45;100490.38;;;13.09;100.00
64292;BME280;50628;51.008;13.658;2023-05-19T22:38:46;100497.16;;;13.11;100.00
64292;BME280;50628;51.008;13.658;2023-05-19T22:43:48;100495.03;;;12.94;100.00
64292;BME280;50628;51.008;13.658;2023-05-19T22:48:52;100487.19;;;12.94;100.00
64292;BME280;50628;51.008;13.658;2023-05-19T22:53:53;100490.91;;;12.58;100.00
64292;BME280;50628;51.008;13.658;2023-05-19T22:58:55;100481.13;;;12.60;100.00
64292;BME280;50628;51.008;13.658;2023-05-19T23:03:58;100473.91;;;12.86;100.00
64292;BME280;50628;51.008;13.658;2023-05-19T23:09:01;100474.72;;;12.86;100.00
64292;BME280;50628;51.008;13.658;2023-05-19T23:14:03;100477.44;;;12.85;100.00
64292;BME280;50628;51.008;13.658;2023-05-19T23:19:06;100475.78;;;12.72;100.00
64292;BME280;50628;51.008;13.658;2023-05-19T23:24:08;100480.19;;;12.49;100.00
64292;BME280;50628;51.008;13.658;2023-05-19T23:29:10;100483.53;;;12.51;100.00
64292;BME280;50628;51.008;13.658;2023-05-19T23:34:14;100486.03;;;12.53;100.00
64292;BME280;50628;51.008;13.658;2023-05-19T23:39:16;100495.28;;;12.68;100.00
64292;BME280;50628;51.008;13.658;2023-05-19T23:44:18;100482.09;;;12.81;100.00
64292;BME280;50628;51.008;13.658;2023-05-19T23:49:21;100484.59;;;12.60;100.00
64292;BME280;50628;51.008;13.658;2023-05-19T23:54:23;100491.13;;;12.66;100.00
64292;BME280;50628;51.008;13.658;2023-05-19T23:59:26;100486.97;;;12.63;100.00
